createdAt,value
2022-10-10T00:00:10.176Z,101573.59
2022-10-10T00:02:41.980Z,101570.13
2022-10-10T00:05:13.470Z,101566.47
2022-10-10T00:07:45.807Z,101566.81
2022-10-10T00:10:17.301Z,101559.22
2022-10-10T00:12:49.525Z,101566.53
2022-10-10T00:15:21.210Z,101563.22
2022-10-10T00:17:53.085Z,101561.59
2022-10-10T00:20:24.579Z,101563.22
2022-10-10T00:22:56.417Z,101570.88
2022-10-10T00:25:27.944Z,101548.03
2022-10-10T00:27:59.784Z,101548.22
2022-10-10T00:30:31.283Z,101549.03
2022-10-10T00:33:03.182Z,101547.22
2022-10-10T00:35:34.679Z,101547.56
2022-10-10T00:38:06.530Z,101546.72
2022-10-10T00:40:38.631Z,101539.78
2022-10-10T00:43:10.457Z,101534.84
2022-10-10T00:45:42.008Z,101537.16
2022-10-10T00:48:13.560Z,101535.50
2022-10-10T00:50:45.050Z,101526.56
2022-10-10T00:53:17.052Z,101527.72
2022-10-10T00:55:48.587Z,101517.94
2022-10-10T00:58:20.444Z,101521.97
2022-10-10T01:00:51.964Z,101519.13
2022-10-10T01:03:23.979Z,101524.44
2022-10-10T01:05:55.833Z,101513.00
2022-10-10T01:08:27.308Z,101515.00
2022-10-10T01:10:59.141Z,101507.06
2022-10-10T01:13:30.597Z,101512.53
2022-10-10T01:16:02.480Z,101508.22
2022-10-10T01:18:33.933Z,101499.63
2022-10-10T01:21:05.853Z,101497.50
2022-10-10T01:23:37.336Z,101496.03
2022-10-10T01:26:09.113Z,101497.03
2022-10-10T01:28:40.655Z,101491.91
2022-10-10T01:31:12.595Z,101497.22
2022-10-10T01:33:44.052Z,101495.56
2022-10-10T01:36:16.013Z,101491.44
2022-10-10T01:38:50.575Z,101486.31
2022-10-10T01:41:22.363Z,101485.31
2022-10-10T01:43:53.820Z,101485.19
2022-10-10T01:46:25.292Z,101475.41
2022-10-10T01:48:57.035Z,101470.13
2022-10-10T01:51:28.842Z,101474.13
2022-10-10T01:54:00.369Z,101483.03
2022-10-10T01:56:31.877Z,101474.44
2022-10-10T01:59:03.357Z,101473.78
2022-10-10T02:01:35.133Z,101467.84
2022-10-10T02:04:06.590Z,101466.19
2022-10-10T02:06:38.515Z,101471.31
2022-10-10T02:09:09.981Z,101459.41
2022-10-10T02:11:41.844Z,101459.59
2022-10-10T02:14:13.308Z,101458.13
2022-10-10T02:16:45.096Z,101458.47
2022-10-10T02:19:16.613Z,101456.00
2022-10-10T02:21:48.091Z,101451.22
2022-10-10T02:24:19.888Z,101448.09
2022-10-10T02:26:51.344Z,101385.66
2022-10-10T02:29:22.820Z,101440.63
2022-10-10T02:31:54.293Z,101439.97
2022-10-10T02:34:25.779Z,101432.88
2022-10-10T02:36:57.272Z,101430.88
2022-10-10T02:39:29.064Z,101426.91
2022-10-10T02:42:00.533Z,101429.56
2022-10-10T02:44:32.348Z,101421.78
2022-10-10T02:47:03.803Z,101424.63
2022-10-10T02:49:35.297Z,101418.84
2022-10-10T02:52:06.765Z,101415.38
2022-10-10T02:54:38.595Z,101411.06
2022-10-10T02:57:10.040Z,101367.50
2022-10-10T02:59:41.825Z,101402.63
2022-10-10T03:02:13.490Z,101398.16
2022-10-10T03:04:45.258Z,101401.97
2022-10-10T03:07:16.750Z,101398.69
2022-10-10T03:09:48.607Z,101385.75
2022-10-10T03:12:20.065Z,101395.53
2022-10-10T03:14:51.564Z,101384.13
2022-10-10T03:17:23.043Z,101382.28
2022-10-10T03:19:55.000Z,101380.00
2022-10-10T03:22:26.617Z,101383.47
2022-10-10T03:24:58.420Z,101372.56
2022-10-10T03:27:29.879Z,101368.75
2022-10-10T03:30:01.662Z,101373.41
2022-10-10T03:32:33.128Z,101362.81
2022-10-10T03:35:04.889Z,101366.81
2022-10-10T03:37:36.334Z,101369.63
2022-10-10T03:40:08.098Z,101369.63
2022-10-10T03:42:39.552Z,101357.22
2022-10-10T03:45:11.303Z,101356.41
2022-10-10T03:47:42.755Z,101345.34
2022-10-10T03:50:14.443Z,101342.88
2022-10-10T03:52:45.906Z,101342.38
2022-10-10T03:55:17.712Z,101340.38
2022-10-10T03:57:49.176Z,101343.56
2022-10-10T04:00:20.959Z,101339.91
2022-10-10T04:02:53.651Z,101331.97
2022-10-10T04:05:25.630Z,101334.63
2022-10-10T04:07:57.098Z,101337.78
2022-10-10T04:10:29.086Z,101323.91
2022-10-10T04:13:00.567Z,101311.03
2022-10-10T04:15:32.993Z,101317.50
2022-10-10T04:18:04.474Z,101312.56
2022-10-10T04:20:36.384Z,101313.72
2022-10-10T04:23:08.162Z,101304.50
2022-10-10T04:25:40.092Z,101300.88
2022-10-10T04:28:11.818Z,101295.78
2022-10-10T04:30:43.375Z,101290.81
2022-10-10T04:33:14.856Z,101282.56
2022-10-10T04:35:46.632Z,101287.34
2022-10-10T04:38:18.354Z,101278.75
2022-10-10T04:40:50.944Z,101276.63
2022-10-10T04:43:22.431Z,101268.50
2022-10-10T04:45:54.321Z,101276.44
2022-10-10T04:48:25.795Z,101271.16
2022-10-10T04:50:57.555Z,101266.03
2022-10-10T04:53:29.520Z,101255.81
2022-10-10T04:56:00.971Z,101256.63
2022-10-10T04:58:32.496Z,101248.88
2022-10-10T05:01:04.250Z,101244.41
2022-10-10T05:03:36.079Z,101240.44
2022-10-10T05:06:07.632Z,101237.97
2022-10-10T05:08:39.589Z,101229.22
2022-10-10T05:11:11.057Z,101229.88
2022-10-10T05:13:42.856Z,101229.34
2022-10-10T05:16:14.420Z,101223.09
2022-10-10T05:18:46.247Z,101223.09
2022-10-10T05:21:17.714Z,101215.97
2022-10-10T05:23:49.837Z,101215.31
2022-10-10T05:26:21.337Z,101214.31
2022-10-10T05:28:53.132Z,101208.69
2022-10-10T05:31:24.658Z,101213.00
2022-10-10T05:33:56.571Z,101205.72
2022-10-10T05:36:28.054Z,101210.00
2022-10-10T05:39:02.085Z,101208.84
2022-10-10T05:41:34.710Z,101206.66
2022-10-10T05:44:06.525Z,101212.41
2022-10-10T05:46:37.980Z,101210.44
2022-10-10T05:49:09.755Z,101211.06
2022-10-10T05:51:41.245Z,101207.56
2022-10-10T05:54:13.031Z,101210.16
2022-10-10T05:56:44.541Z,101199.88
2022-10-10T05:59:16.401Z,101209.06
2022-10-10T06:01:47.930Z,101203.06
2022-10-10T06:04:19.852Z,101209.28
2022-10-10T06:06:51.349Z,101206.31
2022-10-10T06:09:23.303Z,101207.91
2022-10-10T06:11:54.751Z,101197.78
2022-10-10T06:14:26.593Z,101201.09
2022-10-10T06:16:58.044Z,101207.22
2022-10-10T06:19:29.832Z,101203.91
2022-10-10T06:22:01.407Z,101205.19
2022-10-10T06:24:33.188Z,101198.81
2022-10-10T06:27:04.653Z,101200.75
2022-10-10T06:29:36.487Z,101203.28
2022-10-10T06:32:07.982Z,101197.88
2022-10-10T06:34:39.893Z,101201.13
2022-10-10T06:37:12.380Z,101208.94
2022-10-10T06:39:44.164Z,101208.47
2022-10-10T06:42:15.623Z,101208.41
2022-10-10T06:44:47.452Z,101200.78
2022-10-10T06:47:18.928Z,101199.72
2022-10-10T06:49:50.590Z,101196.78
2022-10-10T06:52:22.062Z,101201.22
2022-10-10T06:54:53.838Z,101193.66
2022-10-10T06:57:25.411Z,101195.84
2022-10-10T06:59:56.911Z,101192.31
2022-10-10T07:02:28.597Z,101189.66
2022-10-10T07:05:00.523Z,101199.31
2022-10-10T07:07:32.006Z,101192.00
2022-10-10T07:10:03.527Z,101177.66
2022-10-10T07:12:41.098Z,101178.22
2022-10-10T07:15:16.233Z,101166.78
2022-10-10T07:17:53.386Z,101170.06
2022-10-10T07:20:26.305Z,101172.28
2022-10-10T07:22:57.777Z,101176.13
2022-10-10T07:25:29.832Z,101173.16
2022-10-10T07:28:01.679Z,101181.81
2022-10-10T07:30:33.136Z,101181.75
2022-10-10T07:33:05.086Z,101176.16
2022-10-10T07:35:36.563Z,101180.94
2022-10-10T07:38:08.052Z,101184.94
2022-10-10T07:40:39.522Z,101177.06
2022-10-10T07:43:11.428Z,101177.59
2022-10-10T07:45:42.977Z,101174.53
2022-10-10T07:48:14.812Z,101171.38
2022-10-10T07:50:46.395Z,101185.38
2022-10-10T07:53:18.346Z,101180.88
2022-10-10T07:55:49.844Z,101175.06
2022-10-10T07:58:21.663Z,101175.31
2022-10-10T08:00:53.139Z,101177.00
2022-10-10T08:03:24.791Z,101175.38
2022-10-10T08:05:56.296Z,101169.78
2022-10-10T08:08:28.101Z,101162.94
2022-10-10T08:10:59.652Z,101164.38
2022-10-10T08:13:31.484Z,101167.63
2022-10-10T08:16:02.985Z,101162.78
2022-10-10T08:18:34.806Z,101165.41
2022-10-10T08:21:06.276Z,101161.97
2022-10-10T08:23:38.101Z,101157.97
2022-10-10T08:26:09.592Z,101154.09
2022-10-10T08:28:41.665Z,101146.97
2022-10-10T08:31:13.182Z,101149.09
2022-10-10T08:33:45.648Z,101146.72
2022-10-10T08:36:17.127Z,101137.00
2022-10-10T08:38:49.014Z,101147.53
2022-10-10T08:41:20.515Z,101140.41
2022-10-10T08:43:52.443Z,101138.28
2022-10-10T08:46:23.992Z,101142.03
2022-10-10T08:48:57.575Z,101147.25
2022-10-10T08:51:29.058Z,101142.50
2022-10-10T08:54:00.919Z,101131.53
2022-10-10T08:56:32.775Z,101126.06
2022-10-10T08:59:04.639Z,101125.50
2022-10-10T09:01:36.126Z,101125.34
2022-10-10T09:04:30.725Z,101125.22
2022-10-10T09:07:02.238Z,101125.91
2022-10-10T09:09:34.451Z,101125.31
2022-10-10T09:12:05.936Z,101110.91
2022-10-10T09:14:37.777Z,101109.13
2022-10-10T09:17:09.244Z,101108.28
2022-10-10T09:19:41.208Z,101103.19
2022-10-10T09:22:12.679Z,101107.00
2022-10-10T09:24:44.493Z,101103.38
2022-10-10T09:27:16.343Z,101098.75
2022-10-10T09:29:48.308Z,101109.22
2022-10-10T09:32:19.767Z,101095.53
2022-10-10T09:34:51.568Z,101101.34
2022-10-10T09:37:45.648Z,101090.84
2022-10-10T09:40:15.025Z,101091.63
2022-10-10T09:42:46.508Z,101083.91
2022-10-10T09:45:18.650Z,101088.13
2022-10-10T09:47:50.123Z,101083.94
2022-10-10T09:50:21.881Z,101076.66
2022-10-10T09:52:53.404Z,101076.69
2022-10-10T09:55:25.335Z,101079.75
2022-10-10T09:57:57.843Z,101074.06
2022-10-10T10:00:29.702Z,101074.97
2022-10-10T10:03:01.172Z,101073.75
2022-10-10T10:05:32.987Z,101075.09
2022-10-10T10:08:04.448Z,101074.72
2022-10-10T10:10:36.225Z,101078.34
2022-10-10T10:13:07.676Z,101084.06
2022-10-10T10:15:39.499Z,101077.78
2022-10-10T10:18:11.324Z,101084.59
2022-10-10T10:20:42.826Z,101076.66
2022-10-10T10:23:14.609Z,101078.41
2022-10-10T10:25:46.077Z,101079.34
2022-10-10T10:28:18.518Z,101075.34
2022-10-10T10:30:50.163Z,101071.94
2022-10-10T10:33:21.991Z,101063.94
2022-10-10T10:35:53.471Z,101052.06
2022-10-10T10:38:25.272Z,101054.16
2022-10-10T10:40:56.775Z,101053.16
2022-10-10T10:43:28.590Z,101045.59
2022-10-10T10:46:00.376Z,101047.88
2022-10-10T10:48:32.407Z,101040.41
2022-10-10T10:51:03.884Z,101037.91
2022-10-10T10:53:35.731Z,101038.13
2022-10-10T10:56:07.229Z,101038.44
2022-10-10T11:01:55.299Z,101030.31
2022-10-10T11:05:20.538Z,101025.31
2022-10-10T11:07:19.533Z,101027.25
2022-10-10T11:09:52.208Z,101023.19
2022-10-10T11:12:23.744Z,101012.56
2022-10-10T11:14:55.668Z,101015.88
2022-10-10T11:17:27.207Z,101011.09
2022-10-10T11:19:59.031Z,101017.78
2022-10-10T11:22:30.533Z,101014.22
2022-10-10T11:25:02.307Z,101015.53
2022-10-10T11:27:33.905Z,101013.28
2022-10-10T11:30:05.759Z,101006.16
2022-10-10T11:32:37.220Z,101007.38
2022-10-10T11:35:09.144Z,101012.44
2022-10-10T11:37:40.602Z,101002.56
2022-10-10T11:40:12.353Z,101001.03
2022-10-10T11:42:43.827Z,101001.78
2022-10-10T11:45:15.702Z,101000.56
2022-10-10T11:47:47.198Z,100991.69
2022-10-10T11:50:19.216Z,100988.91
2022-10-10T11:52:50.682Z,100981.91
2022-10-10T11:55:23.807Z,100980.13
2022-10-10T11:57:55.500Z,100969.41
2022-10-10T12:00:27.344Z,100968.69
2022-10-10T12:02:59.157Z,100978.50
2022-10-10T12:05:30.695Z,100972.41
2022-10-10T12:08:02.561Z,100973.94
2022-10-10T12:10:34.068Z,100976.97
2022-10-10T12:13:05.722Z,100966.81
2022-10-10T12:15:41.353Z,100961.31
2022-10-10T12:18:15.324Z,100960.59
2022-10-10T12:20:46.810Z,100952.81
2022-10-10T12:23:18.420Z,100942.44
2022-10-10T12:25:49.939Z,100951.00
2022-10-10T12:28:21.865Z,100954.84
2022-10-10T12:30:58.169Z,100954.19
2022-10-10T12:33:30.463Z,100960.56
2022-10-10T12:36:06.223Z,100964.84
2022-10-10T12:38:38.093Z,100960.50
2022-10-10T12:41:09.644Z,100960.44
2022-10-10T12:43:41.150Z,100955.97
2022-10-10T12:46:12.629Z,100953.50
2022-10-10T12:48:44.149Z,100954.66
2022-10-10T12:51:15.625Z,100957.06
2022-10-10T12:53:47.435Z,100950.13
2022-10-10T12:56:18.931Z,100951.19
2022-10-10T12:58:50.709Z,100946.78
2022-10-10T13:01:22.228Z,100953.50
2022-10-10T13:03:54.145Z,100953.31
2022-10-10T13:06:25.621Z,100954.25
2022-10-10T13:08:57.400Z,100946.50
2022-10-10T13:11:28.865Z,100933.38
2022-10-10T13:14:00.607Z,100932.63
2022-10-10T13:16:34.171Z,100927.13
2022-10-10T13:19:06.087Z,100926.44
2022-10-10T13:21:37.590Z,100917.31
2022-10-10T13:24:09.347Z,100924.31
2022-10-10T13:26:40.875Z,100922.34
2022-10-10T13:29:12.361Z,100925.16
2022-10-10T13:31:44.031Z,100934.88
2022-10-10T13:34:15.979Z,100932.34
2022-10-10T13:36:47.478Z,100932.91
2022-10-10T13:39:19.572Z,100922.06
2022-10-10T13:41:51.110Z,100917.88
2022-10-10T13:44:22.869Z,100911.69
2022-10-10T13:46:54.357Z,100916.28
2022-10-10T13:49:25.942Z,100917.03
2022-10-10T13:51:57.416Z,100919.34
2022-10-10T13:54:29.355Z,100912.16
2022-10-10T13:57:00.803Z,100917.53
2022-10-10T13:59:34.169Z,100902.06
2022-10-10T14:02:06.083Z,100894.31
2022-10-10T14:04:37.651Z,100899.97
2022-10-10T14:07:09.461Z,100897.44
2022-10-10T14:09:40.915Z,100898.25
2022-10-10T14:12:12.666Z,100895.59
2022-10-10T14:14:44.176Z,100895.59
2022-10-10T14:17:16.209Z,100896.41
2022-10-10T14:19:47.703Z,100894.28
2022-10-10T14:22:19.913Z,100886.47
2022-10-10T14:24:51.380Z,100891.34
2022-10-10T14:27:23.748Z,100890.78
2022-10-10T14:29:55.251Z,100888.88
2022-10-10T14:32:27.348Z,100878.88
2022-10-10T14:34:58.841Z,100883.25
2022-10-10T14:37:32.216Z,100890.78
2022-10-10T14:40:03.785Z,100879.19
2022-10-10T14:42:35.683Z,100876.22
2022-10-10T14:45:07.470Z,100876.22
2022-10-10T14:47:39.436Z,100870.81
2022-10-10T14:50:10.990Z,100868.84
2022-10-10T14:52:42.898Z,100869.59
2022-10-10T14:55:14.356Z,100863.00
2022-10-10T14:57:46.258Z,100864.13
2022-10-10T15:00:17.711Z,100862.47
2022-10-10T15:02:49.569Z,100869.41
2022-10-10T15:05:21.073Z,100878.00
2022-10-10T15:07:54.037Z,100873.53
2022-10-10T15:10:33.817Z,100864.38
2022-10-10T15:13:06.396Z,100879.91
2022-10-10T15:15:37.879Z,100868.44
2022-10-10T15:18:32.134Z,100871.09
2022-10-10T15:21:01.555Z,100870.44
2022-10-10T15:23:33.628Z,100873.59
2022-10-10T15:26:05.117Z,100878.88
2022-10-10T15:28:36.982Z,100877.97
2022-10-10T15:31:08.656Z,100881.66
2022-10-10T15:33:40.508Z,100894.75
2022-10-10T15:36:15.818Z,100884.78
2022-10-10T15:38:50.335Z,100891.13
2022-10-10T15:41:21.831Z,100889.44
2022-10-10T15:43:56.338Z,100895.28
2022-10-10T15:46:27.829Z,100895.44
2022-10-10T15:48:59.676Z,100897.25
2022-10-10T15:51:31.127Z,100899.56
2022-10-10T15:54:02.783Z,100900.81
2022-10-10T15:56:34.290Z,100899.31
2022-10-10T15:59:06.203Z,100900.75
2022-10-10T16:01:37.663Z,100900.69
2022-10-10T16:04:09.547Z,100898.69
2022-10-10T16:06:41.524Z,100898.63
2022-10-10T16:09:27.761Z,100896.81
2022-10-10T16:12:00.352Z,100896.44
2022-10-10T16:14:31.829Z,100889.59
2022-10-10T16:17:03.792Z,100903.19
2022-10-10T16:19:35.249Z,100905.47
2022-10-10T16:22:06.771Z,100895.59
2022-10-10T16:24:38.267Z,100900.66
2022-10-10T16:27:10.146Z,100904.56
2022-10-10T16:29:41.645Z,100893.97
2022-10-10T16:32:13.423Z,100892.50
2022-10-10T16:34:44.868Z,100898.81
2022-10-10T16:37:16.706Z,100896.84
2022-10-10T16:39:48.165Z,100898.84
2022-10-10T16:42:20.028Z,100891.75
2022-10-10T16:44:51.484Z,100896.22
2022-10-10T16:47:23.259Z,100892.88
2022-10-10T16:49:54.737Z,100899.41
2022-10-10T16:52:26.628Z,100896.06
2022-10-10T16:54:58.099Z,100891.53
2022-10-10T16:57:30.015Z,100892.50
2022-10-10T17:00:01.484Z,100893.56
2022-10-10T17:02:33.380Z,100899.63
2022-10-10T17:05:04.869Z,100898.81
2022-10-10T17:07:36.788Z,100911.63
2022-10-10T17:10:08.550Z,100910.69
2022-10-10T17:12:40.376Z,100909.53
2022-10-10T17:15:11.869Z,100912.44
2022-10-10T17:17:43.356Z,100908.03
2022-10-10T17:20:14.800Z,100909.78
2022-10-10T17:22:48.543Z,100909.22
2022-10-10T17:25:20.114Z,100915.63
2022-10-10T17:27:51.852Z,100920.16
2022-10-10T17:30:23.321Z,100910.16
2022-10-10T17:32:55.220Z,100905.97
2022-10-10T17:35:26.688Z,100900.22
2022-10-10T17:38:04.456Z,100905.00
2022-10-10T17:40:47.314Z,100906.88
2022-10-10T17:43:19.215Z,100905.25
2022-10-10T17:45:50.792Z,100908.63
2022-10-10T17:48:22.339Z,100912.59
2022-10-10T17:50:53.803Z,100918.06
2022-10-10T17:53:25.408Z,100912.94
2022-10-10T17:55:56.897Z,100915.13
2022-10-10T17:58:28.743Z,100914.53
2022-10-10T18:01:00.806Z,100921.97
2022-10-10T18:03:32.293Z,100917.44
2022-10-10T18:06:04.385Z,100919.63
2022-10-10T18:08:36.091Z,100921.34
2022-10-10T18:11:12.968Z,100920.66
2022-10-10T18:13:44.937Z,100924.25
2022-10-10T18:16:16.820Z,100925.97
2022-10-10T18:18:50.976Z,100924.06
2022-10-10T18:21:23.074Z,100934.41
2022-10-10T18:23:54.625Z,100937.41
2022-10-10T18:26:26.900Z,100943.97
2022-10-10T18:28:58.398Z,100944.28
2022-10-10T18:31:30.197Z,100936.88
2022-10-10T18:34:01.717Z,100950.47
2022-10-10T18:36:33.212Z,100944.66
2022-10-10T18:39:04.737Z,100955.72
2022-10-10T18:41:36.634Z,100954.44
2022-10-10T18:44:08.173Z,100960.16
2022-10-10T18:46:39.924Z,100959.56
2022-10-10T18:49:11.705Z,100964.47
2022-10-10T18:51:43.593Z,100966.03
2022-10-10T18:54:15.154Z,100964.31
2022-10-10T18:56:47.170Z,100964.91
2022-10-10T18:59:18.673Z,100968.28
2022-10-10T19:01:52.794Z,100966.50
2022-10-10T19:04:24.394Z,100967.53
2022-10-10T19:06:57.781Z,100977.84
2022-10-10T19:09:29.653Z,100981.56
2022-10-10T19:12:01.461Z,100989.38
2022-10-10T19:14:33.018Z,100995.31
2022-10-10T19:17:04.824Z,100994.03
2022-10-10T19:19:37.108Z,100993.13
2022-10-10T19:22:08.767Z,100993.66
2022-10-10T19:24:40.269Z,101001.44
2022-10-10T19:27:12.139Z,101000.56
2022-10-10T19:29:43.631Z,101005.03
2022-10-10T19:32:16.414Z,100992.59
2022-10-10T19:34:47.946Z,100994.25
2022-10-10T19:37:21.214Z,100996.22
2022-10-10T19:39:52.713Z,100996.22
2022-10-10T19:42:24.643Z,100993.69
2022-10-10T19:44:56.236Z,101002.31
2022-10-10T19:47:28.211Z,101006.03
2022-10-10T19:49:59.719Z,101003.94
2022-10-10T19:52:31.459Z,101007.44
2022-10-10T19:55:02.957Z,101012.56
2022-10-10T19:57:35.734Z,101018.25
2022-10-10T20:00:07.594Z,101024.00
2022-10-10T20:02:39.187Z,101024.38
2022-10-10T20:05:11.174Z,101021.59
2022-10-10T20:07:42.669Z,101027.09
2022-10-10T20:10:14.601Z,101030.72
2022-10-10T20:12:46.399Z,101036.19
2022-10-10T20:15:18.163Z,101040.84
2022-10-10T20:17:49.692Z,101044.75
2022-10-10T20:20:21.178Z,101046.38
2022-10-10T20:22:52.872Z,101044.28
2022-10-10T20:25:24.394Z,101053.13
2022-10-10T20:27:55.880Z,101050.69
2022-10-10T20:30:27.814Z,101052.78
2022-10-10T20:32:59.349Z,101052.78
2022-10-10T20:35:31.183Z,101054.41
2022-10-10T20:38:02.681Z,101057.31
2022-10-10T20:40:34.503Z,101065.94
2022-10-10T20:43:06.034Z,101077.44
2022-10-10T20:45:38.168Z,101083.63
2022-10-10T20:48:10.006Z,101083.84
2022-10-10T20:50:42.008Z,101089.44
2022-10-10T20:53:13.490Z,101099.09
2022-10-10T20:55:45.509Z,101105.41
2022-10-10T20:58:17.004Z,101107.03
2022-10-10T21:00:49.017Z,101117.28
2022-10-10T21:03:20.549Z,101115.47
2022-10-10T21:05:52.367Z,101123.19
2022-10-10T21:08:23.934Z,101122.91
2022-10-10T21:10:55.795Z,101123.59
2022-10-10T21:13:27.297Z,101135.50
2022-10-10T21:15:59.005Z,101138.88
2022-10-10T21:18:30.518Z,101136.34
2022-10-10T21:21:02.431Z,101142.50
2022-10-10T21:23:33.936Z,101149.03
2022-10-10T21:26:06.287Z,101153.69
2022-10-10T21:28:38.296Z,101156.38
2022-10-10T21:31:10.372Z,101156.78
2022-10-10T21:33:41.875Z,101163.75
2022-10-10T21:36:13.777Z,101164.56
2022-10-10T21:38:45.295Z,101156.78
2022-10-10T21:41:19.451Z,101164.94
2022-10-10T21:43:52.781Z,101154.91
2022-10-10T21:46:24.705Z,101173.19
2022-10-10T21:48:57.500Z,101187.88
2022-10-10T21:51:29.408Z,101176.53
2022-10-10T21:54:00.913Z,101179.72
2022-10-10T21:56:32.734Z,101183.34
2022-10-10T21:59:04.287Z,101194.63
2022-10-10T22:01:37.885Z,101192.25
2022-10-10T22:04:09.527Z,101205.19
2022-10-10T22:06:41.893Z,101203.34
2022-10-10T22:09:13.430Z,101204.84
2022-10-10T22:11:45.388Z,101204.72
2022-10-10T22:14:17.430Z,101206.94
2022-10-10T22:16:49.175Z,101204.59
2022-10-10T22:19:21.012Z,101217.63
2022-10-10T22:21:52.510Z,101209.69
2022-10-10T22:24:24.466Z,101212.13
2022-10-10T22:26:55.978Z,101217.94
2022-10-10T22:29:27.806Z,101223.38
2022-10-10T22:31:59.275Z,101225.25
2022-10-10T22:34:31.227Z,101224.03
2022-10-10T22:37:02.730Z,101220.19
2022-10-10T22:39:34.630Z,101219.31
2022-10-10T22:42:06.109Z,101222.81
2022-10-10T22:44:37.619Z,101225.09
2022-10-10T22:47:09.114Z,101222.03
2022-10-10T22:49:41.024Z,101231.94
2022-10-10T22:52:12.586Z,101227.72
2022-10-10T22:54:44.119Z,101231.53
2022-10-10T22:57:15.620Z,101235.97
2022-10-10T22:59:47.487Z,101239.94
2022-10-10T23:02:18.973Z,101247.00
2022-10-10T23:04:50.802Z,101250.66
2022-10-10T23:07:22.284Z,101255.25
2022-10-10T23:09:54.069Z,101259.78
2022-10-10T23:12:25.566Z,101261.31
2022-10-10T23:14:57.426Z,101276.97
2022-10-10T23:17:28.970Z,101276.44
2022-10-10T23:20:00.757Z,101271.53
2022-10-10T23:22:32.255Z,101276.28
2022-10-10T23:25:04.064Z,101284.34
2022-10-10T23:27:35.612Z,101287.69
2022-10-10T23:30:07.417Z,101300.66
2022-10-10T23:32:38.913Z,101297.25
2022-10-10T23:35:10.735Z,101314.16
2022-10-10T23:37:42.234Z,101316.66
2022-10-10T23:40:14.070Z,101327.78
2022-10-10T23:42:45.569Z,101329.44
2022-10-10T23:45:17.537Z,101339.53
2022-10-10T23:47:49.039Z,101346.34
2022-10-10T23:50:20.985Z,101354.16
2022-10-10T23:52:52.474Z,101358.69
2022-10-10T23:55:24.304Z,101357.50
2022-10-10T23:57:58.081Z,101373.53
